sensor_id;sensor_type;location;lat;lon;timestamp;P1;durP1;ratioP1;P2;durP2;ratioP2
66298;SDS011;53098;47.658;8.578;2023-02-24T00:01:47;14.38;;;3.47;;
66298;SDS011;53098;47.658;8.578;2023-02-24T00:04:13;12.15;;;4.10;;
66298;SDS011;53098;47.658;8.578;2023-02-24T00:06:40;13.68;;;3.63;;
66298;SDS011;53098;47.658;8.578;2023-02-24T00:11:30;10.23;;;3.43;;
66298;SDS011;53098;47.658;8.578;2023-02-24T00:13:56;11.95;;;3.63;;
66298;SDS011;53098;47.658;8.578;2023-02-24T00:16:21;13.70;;;3.22;;
66298;SDS011;53098;47.658;8.578;2023-02-24T00:18:46;11.13;;;3.47;;
66298;SDS011;53098;47.658;8.578;2023-02-24T00:21:13;16.70;;;4.40;;
66298;SDS011;53098;47.658;8.578;2023-02-24T00:23:40;14.57;;;3.50;;
66298;SDS011;53098;47.658;8.578;2023-02-24T00:26:06;14.27;;;3.72;;
66298;SDS011;53098;47.658;8.578;2023-02-24T00:28:32;13.35;;;3.53;;
66298;SDS011;53098;47.658;8.578;2023-02-24T00:31:02;13.43;;;3.28;;
66298;SDS011;53098;47.658;8.578;2023-02-24T00:33:27;14.80;;;3.55;;
66298;SDS011;53098;47.658;8.578;2023-02-24T00:35:52;11.57;;;3.30;;
66298;SDS011;53098;47.658;8.578;2023-02-24T00:38:18;11.53;;;3.40;;
66298;SDS011;53098;47.658;8.578;2023-02-24T00:40:43;15.03;;;3.33;;
66298;SDS011;53098;47.658;8.578;2023-02-24T00:43:08;14.97;;;3.50;;
66298;SDS011;53098;47.658;8.578;2023-02-24T00:45:37;14.67;;;4.40;;
66298;SDS011;53098;47.658;8.578;2023-02-24T00:48:02;8.18;;;2.85;;
66298;SDS011;53098;47.658;8.578;2023-02-24T00:50:27;16.83;;;3.85;;
66298;SDS011;53098;47.658;8.578;2023-02-24T00:52:53;13.37;;;3.10;;
66298;SDS011;53098;47.658;8.578;2023-02-24T00:55:18;13.70;;;3.33;;
66298;SDS011;53098;47.658;8.578;2023-02-24T00:57:43;9.63;;;3.07;;
66298;SDS011;53098;47.658;8.578;2023-02-24T01:00:09;9.93;;;3.00;;
66298;SDS011;53098;47.658;8.578;2023-02-24T01:02:34;9.82;;;3.20;;
66298;SDS011;53098;47.658;8.578;2023-02-24T01:05:01;10.82;;;2.80;;
66298;SDS011;53098;47.658;8.578;2023-02-24T01:07:26;19.73;;;4.03;;
66298;SDS011;53098;47.658;8.578;2023-02-24T01:09:51;12.53;;;3.00;;
66298;SDS011;53098;47.658;8.578;2023-02-24T01:12:16;11.53;;;3.40;;
66298;SDS011;53098;47.658;8.578;2023-02-24T01:14:43;15.87;;;3.20;;
66298;SDS011;53098;47.658;8.578;2023-02-24T01:17:08;9.45;;;3.30;;
66298;SDS011;53098;47.658;8.578;2023-02-24T01:19:34;15.53;;;3.73;;
66298;SDS011;53098;47.658;8.578;2023-02-24T01:22:01;11.45;;;4.25;;
66298;SDS011;53098;47.658;8.578;2023-02-24T01:24:27;11.55;;;3.63;;
66298;SDS011;53098;47.658;8.578;2023-02-24T01:26:53;10.05;;;3.15;;
66298;SDS011;53098;47.658;8.578;2023-02-24T01:29:18;17.60;;;3.60;;
66298;SDS011;53098;47.658;8.578;2023-02-24T01:31:44;15.68;;;3.85;;
66298;SDS011;53098;47.658;8.578;2023-02-24T01:34:09;15.20;;;3.70;;
66298;SDS011;53098;47.658;8.578;2023-02-24T01:36:36;10.93;;;3.50;;
66298;SDS011;53098;47.658;8.578;2023-02-24T01:39:01;14.20;;;3.25;;
66298;SDS011;53098;47.658;8.578;2023-02-24T01:41:27;12.55;;;3.67;;
66298;SDS011;53098;47.658;8.578;2023-02-24T01:46:17;12.23;;;3.43;;
66298;SDS011;53098;47.658;8.578;2023-02-24T01:48:42;13.87;;;3.13;;
66298;SDS011;53098;47.658;8.578;2023-02-24T01:51:08;13.30;;;3.27;;
66298;SDS011;53098;47.658;8.578;2023-02-24T01:53:33;10.97;;;3.27;;
66298;SDS011;53098;47.658;8.578;2023-02-24T01:55:58;13.10;;;4.33;;
66298;SDS011;53098;47.658;8.578;2023-02-24T01:58:25;12.07;;;3.37;;
66298;SDS011;53098;47.658;8.578;2023-02-24T02:00:51;12.00;;;3.92;;
66298;SDS011;53098;47.658;8.578;2023-02-24T02:03:18;12.27;;;3.35;;
66298;SDS011;53098;47.658;8.578;2023-02-24T02:05:44;10.52;;;3.03;;
66298;SDS011;53098;47.658;8.578;2023-02-24T02:08:09;18.48;;;3.78;;
66298;SDS011;53098;47.658;8.578;2023-02-24T02:10:35;15.25;;;3.85;;
66298;SDS011;53098;47.658;8.578;2023-02-24T02:13:00;15.80;;;3.70;;
66298;SDS011;53098;47.658;8.578;2023-02-24T02:15:26;14.40;;;3.50;;
66298;SDS011;53098;47.658;8.578;2023-02-24T02:35:58;16.63;;;3.53;;
66298;SDS011;53098;47.658;8.578;2023-02-24T02:38:34;11.13;;;3.03;;
66298;SDS011;53098;47.658;8.578;2023-02-24T02:43:40;12.60;;;3.97;;
66298;SDS011;53098;47.658;8.578;2023-02-24T02:46:10;10.23;;;3.67;;
66298;SDS011;53098;47.658;8.578;2023-02-24T02:48:42;13.00;;;4.28;;
66298;SDS011;53098;47.658;8.578;2023-02-24T02:51:10;10.10;;;3.47;;
66298;SDS011;53098;47.658;8.578;2023-02-24T02:53:51;10.65;;;2.90;;
66298;SDS011;53098;47.658;8.578;2023-02-24T02:56:21;12.55;;;3.92;;
66298;SDS011;53098;47.658;8.578;2023-02-24T02:58:49;13.85;;;3.75;;
66298;SDS011;53098;47.658;8.578;2023-02-24T03:01:16;11.80;;;4.30;;
66298;SDS011;53098;47.658;8.578;2023-02-24T03:03:42;13.02;;;3.63;;
66298;SDS011;53098;47.658;8.578;2023-02-24T03:06:09;13.73;;;3.92;;
66298;SDS011;53098;47.658;8.578;2023-02-24T03:08:38;18.02;;;4.63;;
66298;SDS011;53098;47.658;8.578;2023-02-24T03:11:06;17.73;;;3.80;;
66298;SDS011;53098;47.658;8.578;2023-02-24T03:13:33;13.15;;;4.10;;
66298;SDS011;53098;47.658;8.578;2023-02-24T03:15:59;17.02;;;4.25;;
66298;SDS011;53098;47.658;8.578;2023-02-24T03:18:29;9.00;;;3.00;;
66298;SDS011;53098;47.658;8.578;2023-02-24T03:20:57;13.95;;;3.80;;
66298;SDS011;53098;47.658;8.578;2023-02-24T03:23:24;11.65;;;3.65;;
66298;SDS011;53098;47.658;8.578;2023-02-24T03:25:55;9.82;;;3.33;;
66298;SDS011;53098;47.658;8.578;2023-02-24T03:28:26;10.43;;;3.13;;
66298;SDS011;53098;47.658;8.578;2023-02-24T03:30:58;11.60;;;3.50;;
66298;SDS011;53098;47.658;8.578;2023-02-24T03:33:33;13.23;;;3.88;;
66298;SDS011;53098;47.658;8.578;2023-02-24T03:35:59;11.50;;;3.05;;
66298;SDS011;53098;47.658;8.578;2023-02-24T03:38:25;12.73;;;3.27;;
66298;SDS011;53098;47.658;8.578;2023-02-24T03:40:50;13.57;;;3.97;;
66298;SDS011;53098;47.658;8.578;2023-02-24T03:43:17;12.20;;;3.37;;
66298;SDS011;53098;47.658;8.578;2023-02-24T03:45:44;12.00;;;3.42;;
66298;SDS011;53098;47.658;8.578;2023-02-24T03:48:10;11.93;;;3.67;;
66298;SDS011;53098;47.658;8.578;2023-02-24T03:50:35;13.57;;;3.78;;
66298;SDS011;53098;47.658;8.578;2023-02-24T04:09:15;10.25;;;3.15;;
66298;SDS011;53098;47.658;8.578;2023-02-24T04:14:21;12.80;;;3.67;;
66298;SDS011;53098;47.658;8.578;2023-02-24T04:16:53;13.18;;;3.88;;
66298;SDS011;53098;47.658;8.578;2023-02-24T04:19:20;11.00;;;3.05;;
66298;SDS011;53098;47.658;8.578;2023-02-24T04:21:46;10.25;;;3.70;;
66298;SDS011;53098;47.658;8.578;2023-02-24T04:24:12;14.73;;;3.47;;
66298;SDS011;53098;47.658;8.578;2023-02-24T04:26:37;14.23;;;4.00;;
66298;SDS011;53098;47.658;8.578;2023-02-24T04:29:03;13.48;;;3.53;;
66298;SDS011;53098;47.658;8.578;2023-02-24T04:31:29;11.10;;;3.63;;
66298;SDS011;53098;47.658;8.578;2023-02-24T04:33:54;9.95;;;3.70;;
66298;SDS011;53098;47.658;8.578;2023-02-24T04:36:20;9.03;;;2.77;;
66298;SDS011;53098;47.658;8.578;2023-02-24T04:38:46;13.00;;;3.90;;
66298;SDS011;53098;47.658;8.578;2023-02-24T04:41:14;10.75;;;3.50;;
66298;SDS011;53098;47.658;8.578;2023-02-24T04:43:40;16.08;;;4.55;;
66298;SDS011;53098;47.658;8.578;2023-02-24T04:46:05;16.10;;;3.93;;
66298;SDS011;53098;47.658;8.578;2023-02-24T04:48:30;15.23;;;3.63;;
66298;SDS011;53098;47.658;8.578;2023-02-24T04:50:55;9.67;;;3.20;;
66298;SDS011;53098;47.658;8.578;2023-02-24T04:53:24;17.13;;;4.07;;
66298;SDS011;53098;47.658;8.578;2023-02-24T04:55:51;10.80;;;3.57;;
66298;SDS011;53098;47.658;8.578;2023-02-24T04:58:20;13.90;;;3.80;;
66298;SDS011;53098;47.658;8.578;2023-02-24T05:00:47;14.50;;;4.22;;
66298;SDS011;53098;47.658;8.578;2023-02-24T05:03:12;10.20;;;3.97;;
66298;SDS011;53098;47.658;8.578;2023-02-24T05:05:38;14.60;;;3.58;;
66298;SDS011;53098;47.658;8.578;2023-02-24T05:10:30;15.97;;;4.27;;
66298;SDS011;53098;47.658;8.578;2023-02-24T05:12:56;13.20;;;4.43;;
66298;SDS011;53098;47.658;8.578;2023-02-24T05:15:21;9.52;;;3.38;;
66298;SDS011;53098;47.658;8.578;2023-02-24T05:17:46;12.43;;;3.73;;
66298;SDS011;53098;47.658;8.578;2023-02-24T05:20:12;12.53;;;3.70;;
66298;SDS011;53098;47.658;8.578;2023-02-24T05:22:37;14.80;;;3.60;;
66298;SDS011;53098;47.658;8.578;2023-02-24T05:25:02;11.03;;;3.93;;
66298;SDS011;53098;47.658;8.578;2023-02-24T05:27:28;10.93;;;3.80;;
66298;SDS011;53098;47.658;8.578;2023-02-24T05:29:53;14.00;;;3.73;;
66298;SDS011;53098;47.658;8.578;2023-02-24T05:32:18;9.43;;;3.27;;
66298;SDS011;53098;47.658;8.578;2023-02-24T05:34:43;11.90;;;3.87;;
66298;SDS011;53098;47.658;8.578;2023-02-24T05:37:09;14.57;;;4.17;;
66298;SDS011;53098;47.658;8.578;2023-02-24T05:39:34;12.45;;;4.20;;
66298;SDS011;53098;47.658;8.578;2023-02-24T05:41:59;18.87;;;4.27;;
66298;SDS011;53098;47.658;8.578;2023-02-24T05:44:25;11.43;;;3.50;;
66298;SDS011;53098;47.658;8.578;2023-02-24T05:46:51;10.75;;;3.78;;
66298;SDS011;53098;47.658;8.578;2023-02-24T05:49:18;26.02;;;4.75;;
66298;SDS011;53098;47.658;8.578;2023-02-24T05:51:44;10.30;;;3.60;;
66298;SDS011;53098;47.658;8.578;2023-02-24T05:54:11;19.87;;;4.73;;
66298;SDS011;53098;47.658;8.578;2023-02-24T05:56:37;14.85;;;5.00;;
66298;SDS011;53098;47.658;8.578;2023-02-24T05:59:04;13.25;;;4.22;;
66298;SDS011;53098;47.658;8.578;2023-02-24T06:01:34;15.35;;;5.43;;
66298;SDS011;53098;47.658;8.578;2023-02-24T06:04:00;14.27;;;4.38;;
66298;SDS011;53098;47.658;8.578;2023-02-24T06:06:25;12.05;;;4.43;;
66298;SDS011;53098;47.658;8.578;2023-02-24T06:08:51;15.68;;;4.60;;
66298;SDS011;53098;47.658;8.578;2023-02-24T06:11:17;14.20;;;4.80;;
66298;SDS011;53098;47.658;8.578;2023-02-24T06:13:43;14.98;;;5.10;;
66298;SDS011;53098;47.658;8.578;2023-02-24T06:16:08;15.13;;;4.60;;
66298;SDS011;53098;47.658;8.578;2023-02-24T06:18:34;12.90;;;4.00;;
66298;SDS011;53098;47.658;8.578;2023-02-24T06:21:02;11.63;;;4.57;;
66298;SDS011;53098;47.658;8.578;2023-02-24T06:23:27;15.43;;;5.20;;
66298;SDS011;53098;47.658;8.578;2023-02-24T06:25:53;16.67;;;4.83;;
66298;SDS011;53098;47.658;8.578;2023-02-24T06:28:18;19.40;;;5.53;;
66298;SDS011;53098;47.658;8.578;2023-02-24T06:30:43;14.70;;;4.97;;
66298;SDS011;53098;47.658;8.578;2023-02-24T06:33:08;14.63;;;4.53;;
66298;SDS011;53098;47.658;8.578;2023-02-24T06:35:34;26.43;;;5.43;;
66298;SDS011;53098;47.658;8.578;2023-02-24T06:37:59;17.60;;;5.17;;
66298;SDS011;53098;47.658;8.578;2023-02-24T06:40:24;25.77;;;6.37;;
66298;SDS011;53098;47.658;8.578;2023-02-24T06:42:50;22.70;;;5.80;;
66298;SDS011;53098;47.658;8.578;2023-02-24T06:45:15;17.38;;;6.18;;
66298;SDS011;53098;47.658;8.578;2023-02-24T06:47:41;23.10;;;6.63;;
66298;SDS011;53098;47.658;8.578;2023-02-24T06:50:07;23.70;;;6.05;;
66298;SDS011;53098;47.658;8.578;2023-02-24T06:52:33;22.13;;;6.57;;
66298;SDS011;53098;47.658;8.578;2023-02-24T06:54:58;25.57;;;7.90;;
66298;SDS011;53098;47.658;8.578;2023-02-24T06:57:23;22.63;;;7.53;;
66298;SDS011;53098;47.658;8.578;2023-02-24T06:59:48;22.57;;;7.70;;
66298;SDS011;53098;47.658;8.578;2023-02-24T07:02:14;23.90;;;8.07;;
66298;SDS011;53098;47.658;8.578;2023-02-24T07:04:39;30.40;;;8.37;;
66298;SDS011;53098;47.658;8.578;2023-02-24T07:07:04;23.00;;;8.80;;
66298;SDS011;53098;47.658;8.578;2023-02-24T07:09:30;34.00;;;8.95;;
66298;SDS011;53098;47.658;8.578;2023-02-24T07:11:55;26.63;;;7.25;;
66298;SDS011;53098;47.658;8.578;2023-02-24T07:14:25;34.20;;;9.90;;
66298;SDS011;53098;47.658;8.578;2023-02-24T07:16:50;37.38;;;10.68;;
66298;SDS011;53098;47.658;8.578;2023-02-24T07:19:16;65.82;;;10.00;;
66298;SDS011;53098;47.658;8.578;2023-02-24T07:21:42;66.50;;;10.67;;
66298;SDS011;53098;47.658;8.578;2023-02-24T07:24:08;27.13;;;9.25;;
66298;SDS011;53098;47.658;8.578;2023-02-24T07:26:34;19.58;;;7.85;;
66298;SDS011;53098;47.658;8.578;2023-02-24T07:28:59;16.87;;;7.33;;
66298;SDS011;53098;47.658;8.578;2023-02-24T07:31:27;21.75;;;6.65;;
66298;SDS011;53098;47.658;8.578;2023-02-24T07:33:55;37.10;;;6.13;;
66298;SDS011;53098;47.658;8.578;2023-02-24T07:36:20;16.15;;;5.88;;
66298;SDS011;53098;47.658;8.578;2023-02-24T07:38:45;17.23;;;5.87;;
66298;SDS011;53098;47.658;8.578;2023-02-24T07:41:12;41.93;;;5.60;;
66298;SDS011;53098;47.658;8.578;2023-02-24T07:43:38;18.20;;;5.82;;
66298;SDS011;53098;47.658;8.578;2023-02-24T07:46:14;11.82;;;5.20;;
66298;SDS011;53098;47.658;8.578;2023-02-24T07:48:39;22.55;;;6.57;;
66298;SDS011;53098;47.658;8.578;2023-02-24T07:51:08;19.80;;;6.45;;
66298;SDS011;53098;47.658;8.578;2023-02-24T07:53:36;29.10;;;7.15;;
66298;SDS011;53098;47.658;8.578;2023-02-24T07:56:09;21.48;;;8.25;;
66298;SDS011;53098;47.658;8.578;2023-02-24T07:58:34;17.55;;;7.13;;
66298;SDS011;53098;47.658;8.578;2023-02-24T08:01:00;27.87;;;9.30;;
66298;SDS011;53098;47.658;8.578;2023-02-24T08:03:26;25.48;;;8.20;;
66298;SDS011;53098;47.658;8.578;2023-02-24T08:05:54;22.98;;;7.15;;
66298;SDS011;53098;47.658;8.578;2023-02-24T08:08:19;16.02;;;6.22;;
66298;SDS011;53098;47.658;8.578;2023-02-24T08:10:44;22.73;;;9.13;;
66298;SDS011;53098;47.658;8.578;2023-02-24T08:13:09;22.50;;;9.13;;
66298;SDS011;53098;47.658;8.578;2023-02-24T08:15:35;24.97;;;10.23;;
66298;SDS011;53098;47.658;8.578;2023-02-24T08:18:00;29.73;;;11.20;;
66298;SDS011;53098;47.658;8.578;2023-02-24T08:20:26;29.45;;;10.85;;
66298;SDS011;53098;47.658;8.578;2023-02-24T08:22:52;21.25;;;9.18;;
66298;SDS011;53098;47.658;8.578;2023-02-24T08:25:19;22.83;;;9.50;;
66298;SDS011;53098;47.658;8.578;2023-02-24T08:27:46;21.00;;;9.73;;
66298;SDS011;53098;47.658;8.578;2023-02-24T08:30:11;16.25;;;8.32;;
66298;SDS011;53098;47.658;8.578;2023-02-24T08:32:41;16.40;;;7.63;;
66298;SDS011;53098;47.658;8.578;2023-02-24T08:35:08;13.32;;;5.93;;
66298;SDS011;53098;47.658;8.578;2023-02-24T08:37:33;10.18;;;4.53;;
66298;SDS011;53098;47.658;8.578;2023-02-24T08:39:59;10.30;;;4.60;;
66298;SDS011;53098;47.658;8.578;2023-02-24T08:42:24;12.32;;;5.22;;
66298;SDS011;53098;47.658;8.578;2023-02-24T08:44:49;11.00;;;5.53;;
66298;SDS011;53098;47.658;8.578;2023-02-24T08:47:15;10.07;;;5.22;;
66298;SDS011;53098;47.658;8.578;2023-02-24T08:49:40;11.00;;;5.00;;
66298;SDS011;53098;47.658;8.578;2023-02-24T08:52:05;12.07;;;5.50;;
66298;SDS011;53098;47.658;8.578;2023-02-24T08:54:31;10.43;;;5.30;;
66298;SDS011;53098;47.658;8.578;2023-02-24T08:56:57;12.18;;;5.00;;
66298;SDS011;53098;47.658;8.578;2023-02-24T08:59:23;12.85;;;6.03;;
66298;SDS011;53098;47.658;8.578;2023-02-24T09:01:49;11.95;;;5.68;;
66298;SDS011;53098;47.658;8.578;2023-02-24T09:04:14;11.40;;;6.73;;
66298;SDS011;53098;47.658;8.578;2023-02-24T09:06:41;17.77;;;6.37;;
66298;SDS011;53098;47.658;8.578;2023-02-24T09:09:07;12.93;;;6.07;;
66298;SDS011;53098;47.658;8.578;2023-02-24T09:11:33;13.27;;;6.93;;
66298;SDS011;53098;47.658;8.578;2023-02-24T09:13:58;14.40;;;6.40;;
66298;SDS011;53098;47.658;8.578;2023-02-24T09:16:23;18.70;;;6.95;;
66298;SDS011;53098;47.658;8.578;2023-02-24T09:18:49;14.07;;;7.00;;
66298;SDS011;53098;47.658;8.578;2023-02-24T09:21:15;13.63;;;7.25;;
66298;SDS011;53098;47.658;8.578;2023-02-24T09:23:41;15.32;;;7.05;;
66298;SDS011;53098;47.658;8.578;2023-02-24T09:26:06;14.00;;;7.53;;
66298;SDS011;53098;47.658;8.578;2023-02-24T09:28:31;15.95;;;8.30;;
66298;SDS011;53098;47.658;8.578;2023-02-24T09:30:57;16.47;;;7.33;;
66298;SDS011;53098;47.658;8.578;2023-02-24T09:33:27;14.38;;;7.43;;
66298;SDS011;53098;47.658;8.578;2023-02-24T09:38:21;17.05;;;7.70;;
66298;SDS011;53098;47.658;8.578;2023-02-24T09:40:47;17.63;;;8.10;;
66298;SDS011;53098;47.658;8.578;2023-02-24T09:43:20;16.92;;;9.80;;
66298;SDS011;53098;47.658;8.578;2023-02-24T09:45:54;19.92;;;8.32;;
66298;SDS011;53098;47.658;8.578;2023-02-24T09:48:23;26.95;;;8.90;;
66298;SDS011;53098;47.658;8.578;2023-02-24T09:50:50;21.80;;;8.70;;
66298;SDS011;53098;47.658;8.578;2023-02-24T09:53:16;17.07;;;8.23;;
66298;SDS011;53098;47.658;8.578;2023-02-24T09:55:48;17.10;;;7.63;;
66298;SDS011;53098;47.658;8.578;2023-02-24T09:58:23;14.63;;;8.32;;
66298;SDS011;53098;47.658;8.578;2023-02-24T10:03:26;21.20;;;8.18;;
66298;SDS011;53098;47.658;8.578;2023-02-24T10:06:08;14.80;;;7.00;;
66298;SDS011;53098;47.658;8.578;2023-02-24T10:08:37;12.63;;;6.78;;
66298;SDS011;53098;47.658;8.578;2023-02-24T10:11:04;13.90;;;6.72;;
66298;SDS011;53098;47.658;8.578;2023-02-24T10:13:31;13.45;;;7.38;;
66298;SDS011;53098;47.658;8.578;2023-02-24T10:16:00;15.02;;;7.32;;
66298;SDS011;53098;47.658;8.578;2023-02-24T10:20:54;12.43;;;6.50;;
66298;SDS011;53098;47.658;8.578;2023-02-24T10:23:23;16.70;;;7.22;;
66298;SDS011;53098;47.658;8.578;2023-02-24T10:25:52;12.45;;;6.30;;
66298;SDS011;53098;47.658;8.578;2023-02-24T10:35:40;12.98;;;7.22;;
66298;SDS011;53098;47.658;8.578;2023-02-24T10:38:06;12.20;;;6.47;;
66298;SDS011;53098;47.658;8.578;2023-02-24T10:40:31;15.63;;;7.83;;
66298;SDS011;53098;47.658;8.578;2023-02-24T10:43:04;15.70;;;6.70;;
66298;SDS011;53098;47.658;8.578;2023-02-24T10:45:30;14.98;;;7.40;;
66298;SDS011;53098;47.658;8.578;2023-02-24T10:47:56;14.50;;;7.03;;
66298;SDS011;53098;47.658;8.578;2023-02-24T10:50:25;11.52;;;6.25;;
66298;SDS011;53098;47.658;8.578;2023-02-24T10:52:52;15.75;;;7.18;;
66298;SDS011;53098;47.658;8.578;2023-02-24T10:55:21;15.00;;;7.28;;
66298;SDS011;53098;47.658;8.578;2023-02-24T10:57:47;13.18;;;7.15;;
66298;SDS011;53098;47.658;8.578;2023-02-24T11:00:17;16.70;;;7.53;;
66298;SDS011;53098;47.658;8.578;2023-02-24T11:02:48;12.88;;;5.88;;
66298;SDS011;53098;47.658;8.578;2023-02-24T11:05:14;15.15;;;7.30;;
66298;SDS011;53098;47.658;8.578;2023-02-24T11:07:39;21.10;;;7.33;;
66298;SDS011;53098;47.658;8.578;2023-02-24T11:10:08;15.63;;;6.77;;
66298;SDS011;53098;47.658;8.578;2023-02-24T11:12:36;15.02;;;6.50;;
66298;SDS011;53098;47.658;8.578;2023-02-24T11:15:04;20.13;;;7.55;;
66298;SDS011;53098;47.658;8.578;2023-02-24T11:17:30;15.63;;;6.80;;
66298;SDS011;53098;47.658;8.578;2023-02-24T11:19:59;18.63;;;6.37;;
66298;SDS011;53098;47.658;8.578;2023-02-24T11:22:32;24.90;;;7.57;;
66298;SDS011;53098;47.658;8.578;2023-02-24T11:25:02;20.63;;;8.45;;
66298;SDS011;53098;47.658;8.578;2023-02-24T11:27:29;20.02;;;7.47;;
66298;SDS011;53098;47.658;8.578;2023-02-24T11:30:02;19.73;;;7.95;;
66298;SDS011;53098;47.658;8.578;2023-02-24T11:35:21;17.00;;;7.90;;
66298;SDS011;53098;47.658;8.578;2023-02-24T11:38:01;19.63;;;7.60;;
66298;SDS011;53098;47.658;8.578;2023-02-24T11:40:32;20.75;;;7.65;;
66298;SDS011;53098;47.658;8.578;2023-02-24T11:45:37;20.60;;;7.78;;
66298;SDS011;53098;47.658;8.578;2023-02-24T11:48:38;19.25;;;7.38;;
66298;SDS011;53098;47.658;8.578;2023-02-24T11:50:59;15.15;;;6.72;;
66298;SDS011;53098;47.658;8.578;2023-02-24T11:56:18;19.00;;;8.55;;
66298;SDS011;53098;47.658;8.578;2023-02-24T11:58:42;15.25;;;7.25;;
66298;SDS011;53098;47.658;8.578;2023-02-24T12:06:42;19.43;;;7.80;;
66298;SDS011;53098;47.658;8.578;2023-02-24T12:09:11;16.45;;;6.68;;
66298;SDS011;53098;47.658;8.578;2023-02-24T12:12:00;20.73;;;7.45;;
66298;SDS011;53098;47.658;8.578;2023-02-24T12:17:14;19.15;;;6.57;;
66298;SDS011;53098;47.658;8.578;2023-02-24T12:19:44;20.80;;;7.15;;
66298;SDS011;53098;47.658;8.578;2023-02-24T12:22:13;17.15;;;5.45;;
66298;SDS011;53098;47.658;8.578;2023-02-24T12:24:38;19.95;;;5.38;;
66298;SDS011;53098;47.658;8.578;2023-02-24T12:29:40;19.25;;;6.10;;
66298;SDS011;53098;47.658;8.578;2023-02-24T12:35:19;20.83;;;5.23;;
66298;SDS011;53098;47.658;8.578;2023-02-24T12:37:33;18.88;;;6.18;;
66298;SDS011;53098;47.658;8.578;2023-02-24T12:55:16;20.05;;;4.82;;
66298;SDS011;53098;47.658;8.578;2023-02-24T12:57:50;28.33;;;5.32;;
66298;SDS011;53098;47.658;8.578;2023-02-24T13:03:07;17.07;;;3.80;;
66298;SDS011;53098;47.658;8.578;2023-02-24T13:05:31;16.17;;;3.75;;
66298;SDS011;53098;47.658;8.578;2023-02-24T13:10:36;16.08;;;3.97;;
66298;SDS011;53098;47.658;8.578;2023-02-24T13:15:30;20.57;;;4.73;;
66298;SDS011;53098;47.658;8.578;2023-02-24T13:17:56;22.73;;;3.83;;
66298;SDS011;53098;47.658;8.578;2023-02-24T13:20:29;22.55;;;4.63;;
66298;SDS011;53098;47.658;8.578;2023-02-24T13:22:55;19.13;;;3.67;;
66298;SDS011;53098;47.658;8.578;2023-02-24T13:25:28;16.40;;;3.90;;
66298;SDS011;53098;47.658;8.578;2023-02-24T13:28:04;16.52;;;4.82;;
66298;SDS011;53098;47.658;8.578;2023-02-24T13:30:32;17.70;;;3.85;;
66298;SDS011;53098;47.658;8.578;2023-02-24T13:32:59;20.55;;;4.03;;
66298;SDS011;53098;47.658;8.578;2023-02-24T13:37:50;22.17;;;4.97;;
66298;SDS011;53098;47.658;8.578;2023-02-24T13:42:57;23.33;;;4.22;;
66298;SDS011;53098;47.658;8.578;2023-02-24T13:52:58;19.43;;;4.17;;
66298;SDS011;53098;47.658;8.578;2023-02-24T13:58:15;29.67;;;4.88;;
66298;SDS011;53098;47.658;8.578;2023-02-24T14:03:18;19.88;;;3.65;;
66298;SDS011;53098;47.658;8.578;2023-02-24T14:05:44;15.60;;;3.40;;
66298;SDS011;53098;47.658;8.578;2023-02-24T14:08:17;19.65;;;4.00;;
66298;SDS011;53098;47.658;8.578;2023-02-24T14:10:44;27.75;;;4.30;;
66298;SDS011;53098;47.658;8.578;2023-02-24T14:13:21;26.10;;;3.78;;
66298;SDS011;53098;47.658;8.578;2023-02-24T14:15:47;20.23;;;4.55;;
66298;SDS011;53098;47.658;8.578;2023-02-24T14:18:24;17.17;;;3.70;;
66298;SDS011;53098;47.658;8.578;2023-02-24T14:20:50;21.70;;;3.40;;
66298;SDS011;53098;47.658;8.578;2023-02-24T14:25:44;20.65;;;3.72;;
66298;SDS011;53098;47.658;8.578;2023-02-24T14:28:17;21.15;;;3.53;;
66298;SDS011;53098;47.658;8.578;2023-02-24T14:30:43;18.52;;;3.92;;
66298;SDS011;53098;47.658;8.578;2023-02-24T14:33:26;15.90;;;3.88;;
66298;SDS011;53098;47.658;8.578;2023-02-24T14:35:51;15.93;;;3.75;;
66298;SDS011;53098;47.658;8.578;2023-02-24T14:38:30;14.95;;;3.67;;
66298;SDS011;53098;47.658;8.578;2023-02-24T14:40:56;18.00;;;3.70;;
66298;SDS011;53098;47.658;8.578;2023-02-24T14:43:22;18.35;;;3.20;;
66298;SDS011;53098;47.658;8.578;2023-02-24T14:45:48;18.48;;;4.03;;
66298;SDS011;53098;47.658;8.578;2023-02-24T14:48:19;18.83;;;3.88;;
66298;SDS011;53098;47.658;8.578;2023-02-24T14:50:44;20.55;;;3.63;;
66298;SDS011;53098;47.658;8.578;2023-02-24T14:53:11;21.63;;;3.67;;
66298;SDS011;53098;47.658;8.578;2023-02-24T14:55:40;31.67;;;4.78;;
66298;SDS011;53098;47.658;8.578;2023-02-24T14:58:20;25.00;;;5.07;;
66298;SDS011;53098;47.658;8.578;2023-02-24T15:00:49;21.02;;;3.72;;
66298;SDS011;53098;47.658;8.578;2023-02-24T15:03:17;19.63;;;5.30;;
66298;SDS011;53098;47.658;8.578;2023-02-24T15:05:46;18.27;;;4.70;;
66298;SDS011;53098;47.658;8.578;2023-02-24T15:10:50;16.67;;;3.60;;
66298;SDS011;53098;47.658;8.578;2023-02-24T15:13:27;19.57;;;4.37;;
66298;SDS011;53098;47.658;8.578;2023-02-24T15:15:53;15.48;;;3.15;;
66298;SDS011;53098;47.658;8.578;2023-02-24T15:18:22;18.23;;;3.78;;
66298;SDS011;53098;47.658;8.578;2023-02-24T15:20:48;24.67;;;3.33;;
66298;SDS011;53098;47.658;8.578;2023-02-24T15:23:28;25.60;;;5.07;;
66298;SDS011;53098;47.658;8.578;2023-02-24T15:25:54;23.65;;;4.03;;
66298;SDS011;53098;47.658;8.578;2023-02-24T15:28:29;22.30;;;4.00;;
66298;SDS011;53098;47.658;8.578;2023-02-24T15:33:21;25.27;;;4.53;;
66298;SDS011;53098;47.658;8.578;2023-02-24T15:35:54;21.20;;;3.92;;
66298;SDS011;53098;47.658;8.578;2023-02-24T15:38:24;24.15;;;4.43;;
66298;SDS011;53098;47.658;8.578;2023-02-24T15:40:53;17.35;;;3.33;;
66298;SDS011;53098;47.658;8.578;2023-02-24T15:43:33;25.42;;;4.18;;
66298;SDS011;53098;47.658;8.578;2023-02-24T15:45:59;23.55;;;4.70;;
66298;SDS011;53098;47.658;8.578;2023-02-24T15:48:24;23.37;;;4.50;;
66298;SDS011;53098;47.658;8.578;2023-02-24T15:50:49;16.73;;;4.18;;
66298;SDS011;53098;47.658;8.578;2023-02-24T15:53:15;21.73;;;3.90;;
66298;SDS011;53098;47.658;8.578;2023-02-24T15:55:40;19.65;;;3.72;;
66298;SDS011;53098;47.658;8.578;2023-02-24T15:58:10;21.92;;;4.53;;
66298;SDS011;53098;47.658;8.578;2023-02-24T16:03:02;21.17;;;4.40;;
66298;SDS011;53098;47.658;8.578;2023-02-24T16:05:27;20.67;;;4.60;;
66298;SDS011;53098;47.658;8.578;2023-02-24T16:07:53;19.87;;;4.43;;
66298;SDS011;53098;47.658;8.578;2023-02-24T16:10:25;21.77;;;5.07;;
66298;SDS011;53098;47.658;8.578;2023-02-24T16:12:52;23.88;;;5.05;;
66298;SDS011;53098;47.658;8.578;2023-02-24T16:15:19;28.98;;;5.32;;
66298;SDS011;53098;47.658;8.578;2023-02-24T16:17:45;24.00;;;5.75;;
66298;SDS011;53098;47.658;8.578;2023-02-24T16:22:36;19.67;;;4.90;;
66298;SDS011;53098;47.658;8.578;2023-02-24T16:25:01;15.82;;;4.18;;
66298;SDS011;53098;47.658;8.578;2023-02-24T16:27:27;18.50;;;4.45;;
66298;SDS011;53098;47.658;8.578;2023-02-24T16:29:53;14.75;;;3.95;;
66298;SDS011;53098;47.658;8.578;2023-02-24T16:32:18;19.13;;;4.30;;
66298;SDS011;53098;47.658;8.578;2023-02-24T16:34:43;16.40;;;4.00;;
66298;SDS011;53098;47.658;8.578;2023-02-24T16:37:16;15.80;;;4.37;;
66298;SDS011;53098;47.658;8.578;2023-02-24T16:39:42;18.52;;;4.45;;
66298;SDS011;53098;47.658;8.578;2023-02-24T16:42:08;17.50;;;4.00;;
66298;SDS011;53098;47.658;8.578;2023-02-24T16:44:33;20.20;;;4.38;;
66298;SDS011;53098;47.658;8.578;2023-02-24T16:46:59;12.73;;;3.23;;
66298;SDS011;53098;47.658;8.578;2023-02-24T16:49:24;17.73;;;4.57;;
66298;SDS011;53098;47.658;8.578;2023-02-24T16:51:49;20.33;;;4.40;;
66298;SDS011;53098;47.658;8.578;2023-02-24T16:54:15;23.53;;;3.70;;